createdAt,value
2018-07-27T00:00:37.578Z,1008.76
2018-07-27T00:02:32.640Z,1008.74
2018-07-27T00:03:31.685Z,1008.73
2018-07-27T00:05:25.804Z,1008.75
2018-07-27T00:06:26.643Z,1008.75
2018-07-27T00:08:21.335Z,1008.74
2018-07-27T00:10:36.240Z,1008.72
2018-07-27T00:11:35.720Z,1008.69
2018-07-27T00:13:29.777Z,1008.68
2018-07-27T00:14:30.123Z,1008.69
2018-07-27T00:16:23.492Z,1008.75
2018-07-27T00:17:22.682Z,1008.71
2018-07-27T00:18:23.325Z,1008.75
2018-07-27T00:19:23.345Z,1008.71
2018-07-27T00:20:22.582Z,1008.73
2018-07-27T00:22:56.154Z,1008.73
2018-07-27T00:23:56.615Z,1008.74
2018-07-27T00:24:55.486Z,1008.69
2018-07-27T00:25:55.526Z,1008.67
2018-07-27T00:26:57.101Z,1008.70
2018-07-27T00:28:56.302Z,1008.68
2018-07-27T00:29:55.480Z,1008.71
2018-07-27T00:30:56.964Z,1008.71
2018-07-27T00:31:56.217Z,1008.69
2018-07-27T00:32:56.956Z,1008.71
2018-07-27T00:33:57.058Z,1008.68
2018-07-27T00:34:56.223Z,1008.72
2018-07-27T00:35:57.049Z,1008.73
2018-07-27T00:36:56.597Z,1008.73
2018-07-27T00:37:55.610Z,1008.72
2018-07-27T00:38:56.776Z,1008.70
2018-07-27T00:39:57.081Z,1008.69
2018-07-27T00:40:56.708Z,1008.67
2018-07-27T00:41:57.005Z,1008.67
2018-07-27T00:42:56.639Z,1008.70
2018-07-27T00:43:56.225Z,1008.74
2018-07-27T00:44:56.200Z,1008.73
2018-07-27T00:47:29.423Z,1008.72
2018-07-27T00:48:29.245Z,1008.74
2018-07-27T00:50:22.797Z,1008.71
2018-07-27T00:51:22.729Z,1008.74
2018-07-27T00:52:23.817Z,1008.73
2018-07-27T00:53:24.484Z,1008.77
2018-07-27T00:54:22.778Z,1008.74
2018-07-27T00:55:24.275Z,1008.74
2018-07-27T00:56:23.837Z,1008.72
2018-07-27T00:57:22.671Z,1008.69
2018-07-27T00:58:23.820Z,1008.71
2018-07-27T00:59:23.529Z,1008.69
2018-07-27T01:00:22.720Z,1008.69
2018-07-27T01:01:38.535Z,1008.68
2018-07-27T01:02:25.619Z,1008.64
2018-07-27T01:03:22.715Z,1008.65
2018-07-27T01:04:23.489Z,1008.60
2018-07-27T01:05:24.185Z,1008.60
2018-07-27T01:06:23.788Z,1008.63
2018-07-27T01:07:23.511Z,1008.62
2018-07-27T01:08:22.732Z,1008.60
2018-07-27T01:09:22.713Z,1008.62
2018-07-27T01:10:22.728Z,1008.57
2018-07-27T01:11:23.544Z,1008.58
2018-07-27T01:12:23.529Z,1008.55
2018-07-27T01:13:23.964Z,1008.59
2018-07-27T01:14:23.537Z,1008.58
2018-07-27T01:15:22.848Z,1008.63
2018-07-27T01:16:23.889Z,1008.61
2018-07-27T01:17:23.956Z,1008.59
2018-07-27T01:18:22.766Z,1008.64
2018-07-27T01:19:23.881Z,1008.64
2018-07-27T01:20:26.735Z,1008.61
2018-07-27T01:21:22.803Z,1008.61
2018-07-27T01:22:23.621Z,1008.61
2018-07-27T01:23:23.935Z,1008.63
2018-07-27T01:24:22.800Z,1008.59
2018-07-27T01:25:22.785Z,1008.59
2018-07-27T01:26:23.994Z,1008.58
2018-07-27T01:27:22.791Z,1008.56
2018-07-27T01:28:24.236Z,1008.55
2018-07-27T01:29:23.572Z,1008.55
2018-07-27T01:30:22.847Z,1008.52
2018-07-27T01:31:24.260Z,1008.50
2018-07-27T01:32:24.005Z,1008.52
2018-07-27T01:33:22.881Z,1008.48
2018-07-27T01:34:23.578Z,1008.54
2018-07-27T01:35:22.820Z,1008.48
2018-07-27T01:36:23.968Z,1008.49
2018-07-27T01:37:24.069Z,1008.44
2018-07-27T01:38:24.059Z,1008.44
2018-07-27T01:39:22.860Z,1008.52
2018-07-27T01:40:24.330Z,1008.48
2018-07-27T01:41:23.649Z,1008.47
2018-07-27T01:42:23.891Z,1008.47
2018-07-27T01:43:24.711Z,1008.46
2018-07-27T01:44:24.691Z,1008.46
2018-07-27T01:45:23.967Z,1008.49
2018-07-27T01:46:22.923Z,1008.50
2018-07-27T01:47:23.902Z,1008.50
2018-07-27T01:48:24.396Z,1008.46
2018-07-27T01:50:24.034Z,1008.47
2018-07-27T01:51:24.006Z,1008.46
2018-07-27T01:52:22.908Z,1008.46
2018-07-27T01:53:22.874Z,1008.46
2018-07-27T01:54:23.604Z,1008.43
2018-07-27T01:55:23.594Z,1008.43
2018-07-27T01:56:24.084Z,1008.46
2018-07-27T01:57:24.054Z,1008.49
2018-07-27T01:58:24.096Z,1008.47
2018-07-27T01:59:24.054Z,1008.48
2018-07-27T02:00:23.682Z,1008.48
2018-07-27T02:01:24.090Z,1008.49
2018-07-27T02:02:24.495Z,1008.47
2018-07-27T02:03:24.099Z,1008.49
2018-07-27T02:04:26.221Z,1008.50
2018-07-27T02:05:24.066Z,1008.47
2018-07-27T02:06:23.704Z,1008.46
2018-07-27T02:07:24.008Z,1008.46
2018-07-27T02:08:24.043Z,1008.44
2018-07-27T02:09:24.148Z,1008.45
2018-07-27T02:10:23.762Z,1008.44
2018-07-27T02:11:24.128Z,1008.42
2018-07-27T02:12:23.040Z,1008.42
2018-07-27T02:13:23.687Z,1008.42
2018-07-27T02:14:23.987Z,1008.40
2018-07-27T02:15:25.924Z,1008.42
2018-07-27T02:16:23.809Z,1008.41
2018-07-27T02:17:23.722Z,1008.39
2018-07-27T02:18:24.073Z,1008.36
2018-07-27T02:19:23.000Z,1008.36
2018-07-27T02:20:24.143Z,1008.40
2018-07-27T02:21:24.118Z,1008.34
2018-07-27T02:22:24.150Z,1008.34
2018-07-27T02:23:24.737Z,1008.32
2018-07-27T02:24:24.690Z,1008.31
2018-07-27T02:25:23.775Z,1008.30
2018-07-27T02:26:24.156Z,1008.30
2018-07-27T02:27:23.838Z,1008.26
2018-07-27T02:28:23.768Z,1008.23
2018-07-27T02:29:24.167Z,1008.26
2018-07-27T02:30:26.048Z,1008.25
2018-07-27T02:31:23.115Z,1008.22
2018-07-27T02:32:24.876Z,1008.22
2018-07-27T02:33:26.220Z,1008.19
2018-07-27T02:34:23.807Z,1008.21
2018-07-27T02:35:24.738Z,1008.20
2018-07-27T02:36:23.064Z,1008.20
2018-07-27T02:37:24.465Z,1008.23
2018-07-27T02:38:24.433Z,1008.16
2018-07-27T02:39:23.852Z,1008.16
2018-07-27T02:40:24.205Z,1008.16
2018-07-27T02:41:26.879Z,1008.20
2018-07-27T02:42:23.076Z,1008.19
2018-07-27T02:43:24.281Z,1008.21
2018-07-27T02:44:24.469Z,1008.20
2018-07-27T02:45:24.188Z,1008.20
2018-07-27T02:46:24.719Z,1008.16
2018-07-27T02:47:24.186Z,1008.16
2018-07-27T02:48:23.151Z,1008.14
2018-07-27T02:49:23.854Z,1008.14
2018-07-27T02:50:23.779Z,1008.19
2018-07-27T02:51:24.264Z,1008.18
2018-07-27T02:52:24.209Z,1008.15
2018-07-27T02:53:24.737Z,1008.14
2018-07-27T02:54:23.160Z,1008.14
2018-07-27T02:55:23.934Z,1008.15
2018-07-27T02:56:24.135Z,1008.14
2018-07-27T02:57:24.199Z,1008.13
2018-07-27T02:58:24.203Z,1008.15
2018-07-27T02:59:23.145Z,1008.13
2018-07-27T03:00:23.850Z,1008.15
2018-07-27T03:01:23.878Z,1008.16
2018-07-27T03:02:24.247Z,1008.15
2018-07-27T03:03:24.262Z,1008.14
2018-07-27T03:04:24.193Z,1008.18
2018-07-27T03:05:24.404Z,1008.16
2018-07-27T03:06:24.247Z,1008.19
2018-07-27T03:07:24.345Z,1008.17
2018-07-27T03:08:23.894Z,1008.15
2018-07-27T03:09:24.390Z,1008.19
2018-07-27T03:10:24.285Z,1008.12
2018-07-27T03:11:24.429Z,1008.21
2018-07-27T03:12:23.947Z,1008.18
2018-07-27T03:13:23.873Z,1008.16
2018-07-27T03:14:23.959Z,1008.19
2018-07-27T03:15:24.269Z,1008.13
2018-07-27T03:16:24.276Z,1008.18
2018-07-27T03:17:24.270Z,1008.15
2018-07-27T03:18:24.283Z,1008.15
2018-07-27T03:19:24.281Z,1008.20
2018-07-27T03:20:23.938Z,1008.13
2018-07-27T03:21:24.300Z,1008.13
2018-07-27T03:22:24.131Z,1008.12
2018-07-27T03:23:23.979Z,1008.14
2018-07-27T03:24:24.325Z,1008.14
2018-07-27T03:25:24.742Z,1008.11
2018-07-27T03:26:24.339Z,1008.15
2018-07-27T03:27:24.010Z,1008.11
2018-07-27T03:28:24.320Z,1008.15
2018-07-27T03:29:25.015Z,1008.13
2018-07-27T03:30:24.740Z,1008.14
2018-07-27T03:31:25.289Z,1008.16
2018-07-27T03:32:24.737Z,1008.16
2018-07-27T03:33:24.289Z,1008.16
2018-07-27T03:34:24.703Z,1008.16
2018-07-27T03:35:24.787Z,1008.15
2018-07-27T03:36:23.260Z,1008.21
2018-07-27T03:37:24.951Z,1008.14
2018-07-27T03:38:25.158Z,1008.15
2018-07-27T03:39:37.682Z,1008.11
2018-07-27T03:40:24.854Z,1008.15
2018-07-27T03:41:26.809Z,1008.15
2018-07-27T03:42:24.774Z,1008.14
2018-07-27T03:43:24.851Z,1008.17
2018-07-27T03:44:23.915Z,1008.18
2018-07-27T03:45:23.949Z,1008.15
2018-07-27T03:46:24.320Z,1008.15
2018-07-27T03:47:24.361Z,1008.11
2018-07-27T03:48:24.520Z,1008.12
2018-07-27T03:49:24.347Z,1008.06
2018-07-27T03:50:23.240Z,1008.10
2018-07-27T03:51:24.330Z,1008.13
2018-07-27T03:52:24.366Z,1008.11
2018-07-27T03:53:24.676Z,1008.12
2018-07-27T03:54:24.475Z,1008.12
2018-07-27T03:55:24.454Z,1008.12
2018-07-27T03:56:24.455Z,1008.11
2018-07-27T03:57:24.124Z,1008.15
2018-07-27T03:58:24.902Z,1008.13
2018-07-27T03:59:24.424Z,1008.09
2018-07-27T04:00:24.806Z,1008.13
2018-07-27T04:01:24.785Z,1008.09
2018-07-27T04:02:23.311Z,1008.11
2018-07-27T04:03:24.064Z,1008.08
2018-07-27T04:04:24.429Z,1008.11
2018-07-27T04:05:24.488Z,1008.13
2018-07-27T04:06:24.134Z,1008.12
2018-07-27T04:07:24.142Z,1008.13
2018-07-27T04:08:24.580Z,1008.14
2018-07-27T04:09:24.022Z,1008.11
2018-07-27T04:10:24.553Z,1008.11
2018-07-27T04:11:24.511Z,1008.08
2018-07-27T04:12:24.545Z,1008.10
2018-07-27T04:13:24.521Z,1008.08
2018-07-27T04:14:24.541Z,1008.10
2018-07-27T04:15:24.080Z,1008.09
2018-07-27T04:16:24.065Z,1008.13
2018-07-27T04:17:24.099Z,1008.08
2018-07-27T04:18:24.467Z,1008.16
2018-07-27T04:19:25.040Z,1008.13
2018-07-27T04:20:24.916Z,1008.14
2018-07-27T04:21:23.318Z,1008.18
2018-07-27T04:22:24.524Z,1008.13
2018-07-27T04:23:24.571Z,1008.14
2018-07-27T04:24:24.983Z,1008.12
2018-07-27T04:25:25.362Z,1008.14
2018-07-27T04:26:25.031Z,1008.15
2018-07-27T04:27:24.388Z,1008.15
2018-07-27T04:28:25.791Z,1008.16
2018-07-27T04:29:24.470Z,1008.15
2018-07-27T04:30:24.130Z,1008.16
2018-07-27T04:31:23.368Z,1008.16
2018-07-27T04:32:24.538Z,1008.17
2018-07-27T04:33:24.530Z,1008.13
2018-07-27T04:34:24.163Z,1008.18
2018-07-27T04:35:24.530Z,1008.19
2018-07-27T04:36:24.740Z,1008.19
2018-07-27T04:37:24.454Z,1008.22
2018-07-27T04:38:24.815Z,1008.21
2018-07-27T04:39:23.403Z,1008.21
2018-07-27T04:40:23.368Z,1008.22
2018-07-27T04:41:24.924Z,1008.24
2018-07-27T04:42:24.424Z,1008.21
2018-07-27T04:44:24.546Z,1008.22
2018-07-27T04:45:24.992Z,1008.22
2018-07-27T04:46:24.864Z,1008.27
2018-07-27T04:47:23.391Z,1008.22
2018-07-27T04:48:24.352Z,1008.23
2018-07-27T04:49:24.502Z,1008.25
2018-07-27T04:50:23.443Z,1008.22
2018-07-27T04:51:23.471Z,1008.25
2018-07-27T04:52:24.520Z,1008.25
2018-07-27T04:53:24.165Z,1008.23
2018-07-27T04:54:23.420Z,1008.17
2018-07-27T04:55:24.496Z,1008.23
2018-07-27T04:56:23.465Z,1008.24
2018-07-27T04:57:24.802Z,1008.22
2018-07-27T04:58:24.488Z,1008.22
2018-07-27T04:59:24.472Z,1008.21
2018-07-27T05:00:24.474Z,1008.24
2018-07-27T05:01:23.432Z,1008.25
2018-07-27T05:02:26.050Z,1008.25
2018-07-27T05:03:24.977Z,1008.27
2018-07-27T05:04:25.357Z,1008.26
2018-07-27T05:05:24.922Z,1008.25
2018-07-27T05:06:23.530Z,1008.25
2018-07-27T05:07:25.001Z,1008.26
2018-07-27T05:08:24.985Z,1008.28
2018-07-27T05:09:24.731Z,1008.31
2018-07-27T05:10:27.300Z,1008.26
2018-07-27T05:11:23.442Z,1008.27
2018-07-27T05:12:23.460Z,1008.30
2018-07-27T05:13:24.488Z,1008.29
2018-07-27T05:14:25.145Z,1008.30
2018-07-27T05:15:24.987Z,1008.31
2018-07-27T05:16:23.457Z,1008.29
2018-07-27T05:17:24.941Z,1008.28
2018-07-27T05:18:24.296Z,1008.30
2018-07-27T05:19:24.656Z,1008.26
2018-07-27T05:20:24.635Z,1008.26
2018-07-27T05:21:23.803Z,1008.27
2018-07-27T05:22:25.297Z,1008.24
2018-07-27T05:23:23.481Z,1008.24
2018-07-27T05:24:23.578Z,1008.26
2018-07-27T05:25:24.803Z,1008.29
2018-07-27T05:26:24.960Z,1008.28
2018-07-27T05:27:25.020Z,1008.29
2018-07-27T05:28:24.974Z,1008.26
2018-07-27T05:29:25.469Z,1008.29
2018-07-27T05:30:24.493Z,1008.25
2018-07-27T05:31:24.961Z,1008.25
2018-07-27T05:32:25.505Z,1008.27
2018-07-27T05:33:24.998Z,1008.26
2018-07-27T05:34:24.570Z,1008.29
2018-07-27T05:35:24.491Z,1008.25
2018-07-27T05:36:25.022Z,1008.29
2018-07-27T05:37:24.610Z,1008.27
2018-07-27T05:38:24.615Z,1008.30
2018-07-27T05:39:31.268Z,1008.33
2018-07-27T05:40:30.271Z,1008.30
2018-07-27T05:41:38.954Z,1008.31
2018-07-27T05:42:23.554Z,1008.30
2018-07-27T05:43:25.086Z,1008.35
2018-07-27T05:44:24.663Z,1008.31
2018-07-27T05:45:39.448Z,1008.34
2018-07-27T05:46:25.058Z,1008.34
2018-07-27T05:47:25.474Z,1008.36
2018-07-27T05:48:24.876Z,1008.39
2018-07-27T05:49:31.291Z,1008.42
2018-07-27T05:50:30.955Z,1008.38
2018-07-27T05:51:27.276Z,1008.39
2018-07-27T05:52:25.521Z,1008.41
2018-07-27T05:53:27.114Z,1008.41
2018-07-27T05:54:25.515Z,1008.41
2018-07-27T05:55:25.344Z,1008.39
2018-07-27T05:56:25.502Z,1008.37
2018-07-27T05:57:25.025Z,1008.36
2018-07-27T05:58:25.330Z,1008.37
2018-07-27T05:59:25.404Z,1008.38
2018-07-27T06:00:25.375Z,1008.35
2018-07-27T06:01:25.310Z,1008.38
2018-07-27T06:02:25.265Z,1008.36
2018-07-27T06:03:25.380Z,1008.36
2018-07-27T06:04:25.218Z,1008.38
2018-07-27T06:05:25.482Z,1008.36
2018-07-27T06:06:25.563Z,1008.40
2018-07-27T06:07:25.546Z,1008.42
2018-07-27T06:08:25.461Z,1008.39
2018-07-27T06:09:25.320Z,1008.40
2018-07-27T06:10:24.770Z,1008.43
2018-07-27T06:11:25.557Z,1008.39
2018-07-27T06:12:25.347Z,1008.38
2018-07-27T06:13:31.817Z,1008.37
2018-07-27T06:14:25.376Z,1008.40
2018-07-27T06:15:31.331Z,1008.39
2018-07-27T06:16:31.495Z,1008.37
2018-07-27T06:18:00.867Z,1008.41
2018-07-27T06:18:27.049Z,1008.40
2018-07-27T06:19:23.701Z,1008.40
2018-07-27T06:20:23.691Z,1008.41
2018-07-27T06:21:25.066Z,1008.41
2018-07-27T06:22:25.480Z,1008.39
2018-07-27T06:23:25.306Z,1008.37
2018-07-27T06:24:25.899Z,1008.39
2018-07-27T06:25:23.776Z,1008.37
2018-07-27T06:26:24.764Z,1008.35
2018-07-27T06:27:23.800Z,1008.33
2018-07-27T06:28:25.469Z,1008.35
2018-07-27T06:29:24.479Z,1008.34
2018-07-27T06:30:24.763Z,1008.31
2018-07-27T06:31:24.891Z,1008.29
2018-07-27T06:32:25.860Z,1008.30
2018-07-27T06:33:24.427Z,1008.31
2018-07-27T06:34:25.049Z,1008.31
2018-07-27T06:35:25.072Z,1008.33
2018-07-27T06:36:24.421Z,1008.34
2018-07-27T06:37:24.755Z,1008.32
2018-07-27T06:38:25.574Z,1008.29
2018-07-27T06:39:23.702Z,1008.30
2018-07-27T06:40:23.703Z,1008.31
2018-07-27T06:41:25.317Z,1008.32
2018-07-27T06:42:24.419Z,1008.35
2018-07-27T06:43:25.148Z,1008.33
2018-07-27T06:44:31.792Z,1008.36
2018-07-27T06:45:25.339Z,1008.34
2018-07-27T06:46:25.818Z,1008.36
2018-07-27T06:47:26.091Z,1008.38
2018-07-27T06:48:25.856Z,1008.36
2018-07-27T06:49:23.731Z,1008.33
2018-07-27T06:50:23.838Z,1008.30
2018-07-27T06:51:23.791Z,1008.35
2018-07-27T06:52:23.817Z,1008.35
2018-07-27T06:53:23.741Z,1008.37
2018-07-27T06:54:23.801Z,1008.30
2018-07-27T06:55:25.204Z,1008.34
2018-07-27T06:56:25.000Z,1008.38
2018-07-27T06:57:24.493Z,1008.37
2018-07-27T06:58:24.993Z,1008.39
2018-07-27T06:59:25.088Z,1008.39
2018-07-27T07:00:25.061Z,1008.40
2018-07-27T07:01:24.847Z,1008.38
2018-07-27T07:02:25.304Z,1008.35
2018-07-27T07:03:24.876Z,1008.38
2018-07-27T07:04:28.070Z,1008.38
2018-07-27T07:05:25.009Z,1008.32
2018-07-27T07:06:25.586Z,1008.33
2018-07-27T07:07:25.322Z,1008.33
2018-07-27T07:08:25.309Z,1008.34
2018-07-27T07:09:32.002Z,1008.35
2018-07-27T07:10:26.043Z,1008.34
2018-07-27T07:11:25.384Z,1008.37
2018-07-27T07:12:25.002Z,1008.37
2018-07-27T07:13:25.518Z,1008.36
2018-07-27T07:14:40.055Z,1008.36
2018-07-27T07:15:25.837Z,1008.38
2018-07-27T07:16:27.207Z,1008.36
2018-07-27T07:17:27.085Z,1008.35
2018-07-27T07:18:39.581Z,1008.37
2018-07-27T07:19:25.455Z,1008.34
2018-07-27T07:20:25.355Z,1008.36
2018-07-27T07:21:39.399Z,1008.39
2018-07-27T07:22:31.868Z,1008.36
2018-07-27T07:23:25.543Z,1008.37
2018-07-27T07:24:25.967Z,1008.39
2018-07-27T07:25:25.612Z,1008.41
2018-07-27T07:26:25.907Z,1008.39
2018-07-27T07:27:25.323Z,1008.40
2018-07-27T07:28:25.561Z,1008.44
2018-07-27T07:29:31.329Z,1008.40
2018-07-27T07:30:25.637Z,1008.44
2018-07-27T07:31:25.593Z,1008.44
2018-07-27T07:32:25.609Z,1008.39
2018-07-27T07:33:31.957Z,1008.43
2018-07-27T07:34:31.964Z,1008.42
2018-07-27T07:35:31.362Z,1008.42
2018-07-27T07:36:25.551Z,1008.43
2018-07-27T07:37:25.865Z,1008.41
2018-07-27T07:38:25.847Z,1008.40
2018-07-27T07:39:25.877Z,1008.40
2018-07-27T07:40:25.038Z,1008.39
2018-07-27T07:41:25.403Z,1008.36
2018-07-27T07:42:27.245Z,1008.38
2018-07-27T07:43:25.339Z,1008.36
2018-07-27T07:44:25.921Z,1008.36
2018-07-27T07:45:25.916Z,1008.35
2018-07-27T07:46:25.594Z,1008.33
2018-07-27T07:47:25.871Z,1008.35
2018-07-27T07:48:25.121Z,1008.31
2018-07-27T07:49:26.005Z,1008.30
2018-07-27T07:50:27.023Z,1008.33
2018-07-27T07:51:25.395Z,1008.33
2018-07-27T07:52:25.871Z,1008.31
2018-07-27T07:53:25.614Z,1008.30
2018-07-27T07:54:25.517Z,1008.35
2018-07-27T07:55:25.436Z,1008.27
2018-07-27T07:56:25.515Z,1008.31
2018-07-27T07:57:25.839Z,1008.24
2018-07-27T07:58:25.416Z,1008.24
2018-07-27T07:59:25.622Z,1008.22
2018-07-27T08:00:25.863Z,1008.24
2018-07-27T08:01:25.077Z,1008.20
2018-07-27T08:02:25.356Z,1008.19
2018-07-27T08:03:25.450Z,1008.16
2018-07-27T08:04:26.008Z,1008.16
2018-07-27T08:05:25.962Z,1008.15
2018-07-27T08:06:27.131Z,1008.19
2018-07-27T08:07:25.546Z,1008.19
2018-07-27T08:08:25.525Z,1008.17
2018-07-27T08:09:26.060Z,1008.17
2018-07-27T08:10:25.972Z,1008.12
2018-07-27T08:11:25.500Z,1008.19
2018-07-27T08:12:25.735Z,1008.17
2018-07-27T08:13:26.142Z,1008.14
2018-07-27T08:14:25.619Z,1008.12
2018-07-27T08:15:25.540Z,1008.08
2018-07-27T08:16:25.467Z,1008.11
2018-07-27T08:17:25.512Z,1008.07
2018-07-27T08:18:26.089Z,1008.04
2018-07-27T08:19:25.206Z,1008.03
2018-07-27T08:20:25.571Z,1008.05
2018-07-27T08:21:25.540Z,1008.05
2018-07-27T08:22:26.069Z,1008.07
2018-07-27T08:23:26.147Z,1008.05
2018-07-27T08:24:25.953Z,1008.05
2018-07-27T08:25:25.514Z,1008.05
2018-07-27T08:26:25.651Z,1008.07
2018-07-27T08:27:27.396Z,1008.04
2018-07-27T08:28:26.175Z,1008.07
2018-07-27T08:29:25.214Z,1008.07
2018-07-27T08:30:25.434Z,1008.04
2018-07-27T08:31:25.552Z,1008.06
2018-07-27T08:32:25.578Z,1008.03
2018-07-27T08:33:32.039Z,1008.06
2018-07-27T08:34:26.072Z,1008.02
2018-07-27T08:35:25.586Z,1008.00
2018-07-27T08:36:25.988Z,1008.01
2018-07-27T08:37:26.269Z,1008.00
2018-07-27T08:38:26.041Z,1007.98
2018-07-27T08:39:26.038Z,1007.98
2018-07-27T08:40:25.516Z,1008.01
2018-07-27T08:41:25.587Z,1007.99
2018-07-27T08:42:26.087Z,1007.97
2018-07-27T08:43:25.835Z,1008.02
2018-07-27T08:44:26.187Z,1007.98
2018-07-27T08:45:26.064Z,1007.98
2018-07-27T08:46:26.179Z,1007.95
2018-07-27T08:47:26.044Z,1007.96
2018-07-27T08:48:26.406Z,1007.93
2018-07-27T08:49:26.387Z,1007.93
2018-07-27T08:50:26.177Z,1007.94
2018-07-27T08:51:26.142Z,1007.98
2018-07-27T08:52:26.387Z,1007.91
2018-07-27T08:53:25.892Z,1007.95
2018-07-27T08:54:26.548Z,1007.93
2018-07-27T08:55:25.944Z,1007.89
2018-07-27T08:56:26.478Z,1007.89
2018-07-27T08:57:26.722Z,1007.85
2018-07-27T08:58:26.132Z,1007.85
2018-07-27T08:59:26.243Z,1007.88
2018-07-27T09:00:25.590Z,1007.85
2018-07-27T09:01:26.127Z,1007.85
2018-07-27T09:02:26.116Z,1007.83
2018-07-27T09:03:26.096Z,1007.83
2018-07-27T09:04:26.148Z,1007.87
2018-07-27T09:05:25.905Z,1007.83
2018-07-27T09:06:26.094Z,1007.78
2018-07-27T09:07:26.407Z,1007.76
2018-07-27T09:08:26.098Z,1007.82
2018-07-27T09:09:26.159Z,1007.82
2018-07-27T09:10:26.560Z,1007.81
2018-07-27T09:11:26.064Z,1007.76
2018-07-27T09:12:27.712Z,1007.76
2018-07-27T09:13:26.059Z,1007.75
2018-07-27T09:14:26.060Z,1007.71
2018-07-27T09:15:26.058Z,1007.71
2018-07-27T09:16:26.401Z,1007.66
2018-07-27T09:17:25.980Z,1007.70
2018-07-27T09:18:26.415Z,1007.65
2018-07-27T09:19:26.389Z,1007.67
2018-07-27T09:20:25.566Z,1007.64
2018-07-27T09:21:26.067Z,1007.69
2018-07-27T09:22:26.064Z,1007.67
2018-07-27T09:23:26.061Z,1007.66
2018-07-27T09:24:26.784Z,1007.68
2018-07-27T09:25:26.284Z,1007.64
2018-07-27T09:26:26.506Z,1007.68
2018-07-27T09:27:28.639Z,1007.65
2018-07-27T09:28:25.568Z,1007.67
2018-07-27T09:29:26.420Z,1007.68
2018-07-27T09:30:25.420Z,1007.70
2018-07-27T09:31:25.891Z,1007.63
2018-07-27T09:32:40.615Z,1007.65
2018-07-27T09:33:25.509Z,1007.65
2018-07-27T09:34:46.646Z,1007.65
2018-07-27T09:35:26.438Z,1007.68
2018-07-27T09:36:26.420Z,1007.65
2018-07-27T09:37:26.145Z,1007.62
2018-07-27T09:38:26.443Z,1007.61
2018-07-27T09:39:26.118Z,1007.56
2018-07-27T09:40:25.948Z,1007.55
2018-07-27T09:41:26.197Z,1007.59
2018-07-27T09:42:26.465Z,1007.58
2018-07-27T09:43:25.618Z,1007.59
2018-07-27T09:44:26.437Z,1007.59
2018-07-27T09:45:26.458Z,1007.58
2018-07-27T09:46:25.674Z,1007.60
2018-07-27T09:47:26.417Z,1007.57
2018-07-27T09:48:26.146Z,1007.54
2018-07-27T09:49:26.578Z,1007.57
2018-07-27T09:50:26.509Z,1007.53
2018-07-27T09:51:40.516Z,1007.49
2018-07-27T09:52:26.570Z,1007.49
2018-07-27T09:53:26.164Z,1007.48
2018-07-27T09:54:26.166Z,1007.46
2018-07-27T09:55:26.631Z,1007.48
2018-07-27T09:56:28.053Z,1007.50
2018-07-27T09:57:26.692Z,1007.46
2018-07-27T09:58:26.418Z,1007.44
2018-07-27T09:59:25.848Z,1007.42
2018-07-27T10:00:26.102Z,1007.42
2018-07-27T10:01:26.429Z,1007.48
2018-07-27T10:02:25.833Z,1007.47
2018-07-27T10:03:26.243Z,1007.42
2018-07-27T10:04:26.664Z,1007.45
2018-07-27T10:05:25.653Z,1007.43
2018-07-27T10:06:27.691Z,1007.47
2018-07-27T10:07:26.016Z,1007.43
2018-07-27T10:08:26.129Z,1007.41
2018-07-27T10:09:25.979Z,1007.38
2018-07-27T10:10:26.101Z,1007.34
2018-07-27T10:11:28.544Z,1007.37
2018-07-27T10:12:26.699Z,1007.30
2018-07-27T10:13:25.993Z,1007.26
2018-07-27T10:14:26.329Z,1007.31
2018-07-27T10:15:26.525Z,1007.33
2018-07-27T10:16:26.125Z,1007.33
2018-07-27T10:17:26.339Z,1007.28
2018-07-27T10:18:42.132Z,1007.27
2018-07-27T10:19:26.482Z,1007.24
2018-07-27T10:20:26.128Z,1007.29
2018-07-27T10:21:26.585Z,1007.27
2018-07-27T10:22:26.104Z,1007.27
2018-07-27T10:23:26.379Z,1007.22
2018-07-27T10:24:26.623Z,1007.21
2018-07-27T10:25:33.434Z,1007.24
2018-07-27T10:26:26.607Z,1007.22
2018-07-27T10:27:26.047Z,1007.30
2018-07-27T10:28:26.401Z,1007.28
2018-07-27T10:29:26.591Z,1007.23
2018-07-27T10:32:00.090Z,1007.22
2018-07-27T10:32:59.576Z,1007.18
2018-07-27T10:34:53.367Z,1007.11
2018-07-27T10:35:53.997Z,1007.12
2018-07-27T10:37:47.890Z,1007.16
2018-07-27T10:38:48.193Z,1007.15
2018-07-27T10:40:41.773Z,1007.08
2018-07-27T10:41:42.082Z,1007.04
2018-07-27T10:43:38.068Z,1007.09
2018-07-27T10:44:37.316Z,1007.06
2018-07-27T10:46:38.750Z,1007.00
2018-07-27T10:47:31.550Z,1006.93
2018-07-27T10:49:25.417Z,1006.92
2018-07-27T10:50:26.271Z,1006.98
2018-07-27T10:52:19.939Z,1006.92
2018-07-27T10:53:19.977Z,1006.98
2018-07-27T10:55:14.825Z,1006.95
2018-07-27T10:56:15.277Z,1006.94
2018-07-27T10:58:08.706Z,1006.89
2018-07-27T10:59:08.973Z,1006.91
2018-07-27T11:00:08.822Z,1006.92
2018-07-27T11:01:23.572Z,1006.89
2018-07-27T11:02:08.432Z,1006.89
2018-07-27T11:03:08.972Z,1006.85
2018-07-27T11:04:08.797Z,1006.89
2018-07-27T11:05:09.506Z,1006.82
2018-07-27T11:07:41.220Z,1006.85
2018-07-27T11:08:41.488Z,1006.84
2018-07-27T11:11:10.449Z,1006.83
2018-07-27T11:12:50.369Z,1006.75
2018-07-27T11:13:50.677Z,1006.75
2018-07-27T11:15:43.930Z,1006.74
2018-07-27T11:16:44.360Z,1006.64
2018-07-27T11:18:38.895Z,1006.62
2018-07-27T11:19:39.127Z,1006.65
2018-07-27T11:21:32.370Z,1006.64
2018-07-27T11:22:34.099Z,1006.62
2018-07-27T11:24:27.134Z,1006.70
2018-07-27T11:25:27.467Z,1006.61
2018-07-27T11:27:21.834Z,1006.60
2018-07-27T11:28:21.829Z,1006.60
2018-07-27T11:29:23.317Z,1006.56
2018-07-27T11:30:21.078Z,1006.57
2018-07-27T11:31:57.820Z,1006.57
2018-07-27T11:32:20.381Z,1006.54
2018-07-27T11:33:21.773Z,1006.41
2018-07-27T11:34:22.327Z,1006.39
2018-07-27T11:35:21.152Z,1006.38
2018-07-27T11:36:21.412Z,1006.40
2018-07-27T11:37:21.913Z,1006.38
2018-07-27T11:38:21.839Z,1006.35
2018-07-27T11:40:21.656Z,1006.34
2018-07-27T11:41:21.499Z,1006.35
2018-07-27T11:42:22.209Z,1006.34
2018-07-27T11:43:23.425Z,1006.35
2018-07-27T11:44:28.340Z,1006.39
2018-07-27T11:45:21.205Z,1006.36
2018-07-27T11:46:21.488Z,1006.40
2018-07-27T11:47:22.365Z,1006.37
2018-07-27T11:48:22.103Z,1006.35
2018-07-27T11:49:22.192Z,1006.30
2018-07-27T11:50:22.322Z,1006.32
2018-07-27T11:51:22.285Z,1006.36
2018-07-27T11:53:38.845Z,1006.28
2018-07-27T11:54:40.921Z,1006.23
2018-07-27T11:55:53.068Z,1006.25
2018-07-27T11:56:37.484Z,1006.26
2018-07-27T11:58:14.356Z,1006.24
2018-07-27T11:58:44.096Z,1006.24
2018-07-27T11:59:39.204Z,1006.18
2018-07-27T12:00:39.219Z,1006.18
2018-07-27T12:01:40.755Z,1006.18
2018-07-27T12:02:39.120Z,1006.14
2018-07-27T12:03:40.180Z,1006.16
2018-07-27T12:04:38.859Z,1006.18
2018-07-27T12:05:39.387Z,1006.22
2018-07-27T12:06:38.569Z,1006.21
2018-07-27T12:07:39.207Z,1006.17
2018-07-27T12:08:39.168Z,1006.22
2018-07-27T12:09:37.555Z,1006.21
2018-07-27T12:10:39.631Z,1006.17
2018-07-27T12:11:39.091Z,1006.21
2018-07-27T12:12:38.926Z,1006.14
2018-07-27T12:13:39.447Z,1006.09
2018-07-27T12:14:39.362Z,1006.11
2018-07-27T12:15:42.118Z,1006.11
2018-07-27T12:16:39.218Z,1006.18
2018-07-27T12:17:39.303Z,1006.12
2018-07-27T12:18:39.375Z,1006.09
2018-07-27T12:19:45.283Z,1006.08
2018-07-27T12:20:39.432Z,1006.08
2018-07-27T12:21:39.867Z,1006.01
2018-07-27T12:22:39.223Z,1006.05
2018-07-27T12:23:40.481Z,1006.07
2018-07-27T12:24:45.744Z,1006.11
2018-07-27T12:25:39.004Z,1006.09
2018-07-27T12:26:39.717Z,1006.08
2018-07-27T12:27:39.729Z,1006.04
2018-07-27T12:28:39.870Z,1006.08
2018-07-27T12:29:39.237Z,1006.17
2018-07-27T12:30:48.750Z,1006.30
2018-07-27T12:32:32.857Z,1006.41
2018-07-27T12:33:33.833Z,1006.44
2018-07-27T12:35:26.856Z,1006.53
2018-07-27T12:37:45.297Z,1006.59
2018-07-27T12:38:46.647Z,1006.61
2018-07-27T12:39:51.058Z,1006.63
2018-07-27T12:40:50.947Z,1006.59
2018-07-27T12:41:44.532Z,1006.63